Time;durP1;ratioP1;P1;durP2;ratioP2;P2;SDS_P1;SDS_P2;PMS_P1;PMS_P2;Temp;Humidity;BMP_temperature;BMP_pressure;BME280_temperature;BME280_humidity;BME280_pressure;Samples;Min_cycle;Max_cycle;Signal;HPM_P1;HPM_P2
2023/08/11 00:00:47;;;;;;;19.45;14.73;;;;;;;;;;5028363;28;20190;-71
2023/08/11 00:03:13;;;;;;;15.35;13.68;;;;;;;;;;5033918;28;20194;-70
2023/08/11 00:05:39;;;;;;;16.27;13.18;;;;;;;;;;5024831;28;20220;-71
2023/08/11 00:08:05;;;;;;;15.35;12.55;;;;;;;;;;5029567;28;20186;-70
2023/08/11 00:10:32;;;;;;;17.77;12.70;;;;;;;;;;5018321;28;20199;-70
2023/08/11 00:12:58;;;;;;;17.08;13.60;;;;;;;;;;5028389;28;20186;-70
2023/08/11 00:15:24;;;;;;;14.23;12.13;;;;;;;;;;5029341;28;20508;-71
2023/08/11 00:17:51;;;;;;;17.60;12.57;;;;;;;;;;5029532;28;20245;-70
2023/08/11 00:20:17;;;;;;;15.13;11.50;;;;;;;;;;5020971;28;20191;-70
2023/08/11 00:22:42;;;;;;;16.42;11.32;;;;;;;;;;5029101;28;20197;-70
2023/08/11 00:25:08;;;;;;;11.40;10.10;;;;;;;;;;5028544;28;20728;-70
2023/08/11 00:27:34;;;;;;;12.48;11.18;;;;;;;;;;5030546;28;20225;-70
2023/08/11 00:30:00;;;;;;;11.57;9.85;;;;;;;;;;5026405;28;20258;-70
2023/08/11 00:32:26;;;;;;;12.50;10.20;;;;;;;;;;5030151;28;20642;-70
2023/08/11 00:34:51;;;;;;;13.52;10.63;;;;;;;;;;5028943;28;20240;-70
2023/08/11 00:37:17;;;;;;;13.52;11.35;;;;;;;;;;5030468;28;20261;-70
2023/08/11 00:39:42;;;;;;;13.25;11.85;;;;;;;;;;5027051;28;20277;-70
2023/08/11 00:42:08;;;;;;;16.52;12.40;;;;;;;;;;5028820;28;20230;-70
2023/08/11 00:44:33;;;;;;;19.83;14.20;;;;;;;;;;5028334;28;20189;-70
2023/08/11 00:46:59;;;;;;;17.23;15.38;;;;;;;;;;5022889;28;20345;-71
2023/08/11 00:49:25;;;;;;;17.52;14.60;;;;;;;;;;5025905;28;20170;-69
2023/08/11 00:51:51;;;;;;;16.38;14.68;;;;;;;;;;5028718;28;20212;-69
2023/08/11 00:54:16;;;;;;;17.67;13.73;;;;;;;;;;5029759;28;20223;-69
2023/08/11 00:56:44;;;;;;;16.08;13.82;;;;;;;;;;5028352;28;20201;-70
2023/08/11 00:59:15;;;;;;;15.35;13.38;;;;;;;;;;5037200;28;20197;-70
2023/08/11 01:01:40;;;;;;;18.33;15.55;;;;;;;;;;5030244;28;20201;-70
2023/08/11 01:04:07;;;;;;;18.70;14.95;;;;;;;;;;5029336;28;20194;-70
2023/08/11 01:06:38;;;;;;;23.35;17.48;;;;;;;;;;5022216;28;20213;-70
2023/08/11 01:09:35;;;;;;;19.75;15.07;;;;;;;;;;5029606;28;20190;-70
2023/08/11 01:12:32;;;;;;;17.05;12.93;;;;;;;;;;5028289;28;20227;-70
2023/08/11 01:15:10;;;;;;;19.40;12.52;;;;;;;;;;5027699;28;20194;-70
2023/08/11 01:17:38;;;;;;;14.00;11.75;;;;;;;;;;5029338;28;20206;-70
2023/08/11 01:20:10;;;;;;;15.10;12.30;;;;;;;;;;5028553;28;20265;-70
2023/08/11 01:22:42;;;;;;;13.43;11.85;;;;;;;;;;5020311;28;20191;-70
2023/08/11 01:25:09;;;;;;;13.73;11.55;;;;;;;;;;5023481;28;20186;-70
2023/08/11 01:27:36;;;;;;;13.73;12.18;;;;;;;;;;5029018;28;20584;-71
2023/08/11 01:30:04;;;;;;;19.60;12.70;;;;;;;;;;5024076;28;20312;-70
2023/08/11 01:32:31;;;;;;;14.70;11.73;;;;;;;;;;5027769;28;20194;-70
2023/08/11 01:34:56;;;;;;;14.25;12.00;;;;;;;;;;5027637;28;20611;-71
2023/08/11 01:37:22;;;;;;;15.18;12.80;;;;;;;;;;5024034;28;20186;-70
2023/08/11 01:39:48;;;;;;;15.43;13.02;;;;;;;;;;5029008;28;20244;-70
2023/08/11 01:42:15;;;;;;;16.13;13.57;;;;;;;;;;5024779;28;20246;-70
2023/08/11 01:44:41;;;;;;;18.88;14.98;;;;;;;;;;5018068;28;20198;-70
2023/08/11 01:47:07;;;;;;;18.77;13.75;;;;;;;;;;5028770;28;20696;-70
2023/08/11 01:49:32;;;;;;;15.70;13.98;;;;;;;;;;5008428;28;20273;-70
2023/08/11 01:51:58;;;;;;;21.50;13.82;;;;;;;;;;5018422;28;20396;-70
2023/08/11 01:54:24;;;;;;;16.83;12.43;;;;;;;;;;5027672;28;20190;-70
2023/08/11 01:56:50;;;;;;;15.65;12.40;;;;;;;;;;5025695;28;20186;-70
2023/08/11 01:59:16;;;;;;;14.27;12.35;;;;;;;;;;5027725;28;20187;-70
2023/08/11 02:01:42;;;;;;;17.98;12.35;;;;;;;;;;5028546;28;20220;-71
2023/08/11 02:04:11;;;;;;;15.95;13.32;;;;;;;;;;5028050;28;20664;-70
2023/08/11 02:06:39;;;;;;;15.45;12.77;;;;;;;;;;5020379;28;20511;-70
2023/08/11 02:09:08;;;;;;;13.90;12.38;;;;;;;;;;5038784;28;20194;-71
2023/08/11 02:11:34;;;;;;;15.15;11.63;;;;;;;;;;5024018;28;20205;-70
2023/08/11 02:13:59;;;;;;;15.63;11.48;;;;;;;;;;5032985;28;20190;-70
2023/08/11 02:16:25;;;;;;;14.73;11.57;;;;;;;;;;5031719;28;20194;-70
2023/08/11 02:18:50;;;;;;;12.45;11.13;;;;;;;;;;5032707;28;20228;-70
2023/08/11 02:21:16;;;;;;;12.75;11.13;;;;;;;;;;5031127;28;20186;-70
2023/08/11 02:23:41;;;;;;;15.45;11.90;;;;;;;;;;5031433;28;20201;-70
2023/08/11 02:26:07;;;;;;;16.98;12.65;;;;;;;;;;5024552;28;20693;-70
2023/08/11 02:28:33;;;;;;;12.75;11.45;;;;;;;;;;5030315;28;20198;-70
2023/08/11 02:30:58;;;;;;;12.68;11.38;;;;;;;;;;5024994;28;20230;-70
2023/08/11 02:33:23;;;;;;;12.40;11.13;;;;;;;;;;5028526;28;20190;-70
2023/08/11 02:35:49;;;;;;;15.30;12.27;;;;;;;;;;5031736;28;20623;-70
2023/08/11 02:38:15;;;;;;;14.23;11.90;;;;;;;;;;5032398;28;20194;-69
2023/08/11 02:40:40;;;;;;;13.60;11.65;;;;;;;;;;5015000;28;20673;-69
2023/08/11 02:43:07;;;;;;;14.55;11.93;;;;;;;;;;5010649;28;20729;-71
2023/08/11 02:45:32;;;;;;;12.45;10.95;;;;;;;;;;5029305;28;20191;-70
2023/08/11 02:47:57;;;;;;;15.05;11.77;;;;;;;;;;5032091;28;20186;-70
2023/08/11 02:50:23;;;;;;;14.80;11.10;;;;;;;;;;5031315;28;20193;-70
2023/08/11 02:52:48;;;;;;;16.60;11.20;;;;;;;;;;5041009;28;20224;-70
2023/08/11 02:55:14;;;;;;;14.38;11.35;;;;;;;;;;5031964;28;20564;-70
2023/08/11 02:57:40;;;;;;;13.82;11.63;;;;;;;;;;5030050;28;20190;-70
2023/08/11 03:00:12;;;;;;;13.15;11.20;;;;;;;;;;5030942;28;20197;-70
2023/08/11 03:02:37;;;;;;;14.02;10.25;;;;;;;;;;5015910;28;20243;-70
2023/08/11 03:05:03;;;;;;;10.73;9.55;;;;;;;;;;5031757;28;20212;-70
2023/08/11 03:07:31;;;;;;;11.18;10.02;;;;;;;;;;5024733;28;20229;-70
2023/08/11 03:09:56;;;;;;;13.05;10.25;;;;;;;;;;5029701;28;20645;-71
2023/08/11 03:12:22;;;;;;;15.63;11.07;;;;;;;;;;5030072;28;20194;-70
2023/08/11 03:14:47;;;;;;;17.27;10.52;;;;;;;;;;5030457;28;20198;-70
2023/08/11 03:17:13;;;;;;;15.13;9.90;;;;;;;;;;5031903;28;20221;-70
2023/08/11 03:19:39;;;;;;;16.25;10.73;;;;;;;;;;5026294;28;20653;-70
2023/08/11 03:22:04;;;;;;;15.50;10.25;;;;;;;;;;5023648;28;20193;-70
2023/08/11 03:24:29;;;;;;;15.27;11.02;;;;;;;;;;5030569;28;20190;-71
2023/08/11 03:26:55;;;;;;;11.05;9.73;;;;;;;;;;5030493;28;20225;-70
2023/08/11 03:29:20;;;;;;;13.45;9.98;;;;;;;;;;5028553;28;20190;-71
2023/08/11 03:31:46;;;;;;;13.80;10.02;;;;;;;;;;5024352;28;20733;-71
2023/08/11 03:34:11;;;;;;;13.07;10.02;;;;;;;;;;5031068;28;20196;-71
2023/08/11 03:36:36;;;;;;;13.52;10.05;;;;;;;;;;5016851;28;20194;-70
2023/08/11 03:39:02;;;;;;;15.90;10.93;;;;;;;;;;5030809;28;20178;-71
2023/08/11 03:41:27;;;;;;;12.70;10.27;;;;;;;;;;5022478;28;20183;-71
2023/08/11 03:43:53;;;;;;;11.70;9.15;;;;;;;;;;5028755;28;20283;-70
2023/08/11 03:46:18;;;;;;;13.55;9.75;;;;;;;;;;5029783;28;20549;-70
2023/08/11 03:48:44;;;;;;;14.95;9.85;;;;;;;;;;5040629;28;20231;-71
2023/08/11 03:51:09;;;;;;;14.23;9.48;;;;;;;;;;5026718;28;20547;-71
2023/08/11 03:53:36;;;;;;;12.07;8.32;;;;;;;;;;5024812;28;20205;-71
2023/08/11 03:56:07;;;;;;;11.98;9.38;;;;;;;;;;5029299;28;20195;-71
2023/08/11 03:58:35;;;;;;;12.63;8.60;;;;;;;;;;5030502;28;20182;-70
2023/08/11 04:01:00;;;;;;;13.95;9.35;;;;;;;;;;5028514;28;20274;-71
2023/08/11 04:03:28;;;;;;;10.15;8.52;;;;;;;;;;5030749;28;20257;-71
2023/08/11 04:05:53;;;;;;;10.10;8.02;;;;;;;;;;5027276;28;20229;-70
2023/08/11 04:08:20;;;;;;;11.38;8.75;;;;;;;;;;5029547;28;20262;-70
2023/08/11 04:10:45;;;;;;;12.70;8.63;;;;;;;;;;5029558;28;20193;-70
2023/08/11 04:13:11;;;;;;;12.95;9.27;;;;;;;;;;5029920;28;20301;-70
2023/08/11 04:15:38;;;;;;;13.85;8.95;;;;;;;;;;5030512;28;20190;-70
2023/08/11 04:18:04;;;;;;;12.43;8.85;;;;;;;;;;5029412;28;20217;-71
2023/08/11 04:20:30;;;;;;;13.50;8.88;;;;;;;;;;5028789;28;20189;-70
2023/08/11 04:22:56;;;;;;;12.27;8.95;;;;;;;;;;5029830;28;20602;-71
2023/08/11 04:25:21;;;;;;;11.43;8.85;;;;;;;;;;5030097;28;20642;-71
2023/08/11 04:27:47;;;;;;;11.02;9.32;;;;;;;;;;5029611;28;20198;-70
2023/08/11 04:30:13;;;;;;;13.68;9.57;;;;;;;;;;5016990;28;20228;-71
2023/08/11 04:32:38;;;;;;;11.30;9.80;;;;;;;;;;5026565;28;20264;-70
2023/08/11 04:35:06;;;;;;;17.77;10.10;;;;;;;;;;5027401;28;20630;-71
2023/08/11 04:37:33;;;;;;;12.48;9.52;;;;;;;;;;5030050;28;20190;-71
2023/08/11 04:39:58;;;;;;;14.55;9.55;;;;;;;;;;5028089;28;20186;-71
2023/08/11 04:42:23;;;;;;;13.85;9.75;;;;;;;;;;5028425;28;20581;-70
2023/08/11 04:44:49;;;;;;;12.65;9.43;;;;;;;;;;5031646;28;20208;-70
2023/08/11 04:47:14;;;;;;;11.60;8.55;;;;;;;;;;5029104;28;20224;-71
2023/08/11 04:49:41;;;;;;;10.57;8.48;;;;;;;;;;5030261;28;20193;-70
2023/08/11 04:52:07;;;;;;;11.57;8.75;;;;;;;;;;5022516;28;20198;-70
2023/08/11 04:54:33;;;;;;;10.55;8.65;;;;;;;;;;5030219;28;20682;-70
2023/08/11 04:56:59;;;;;;;12.75;8.63;;;;;;;;;;5028908;28;20510;-71
2023/08/11 04:59:24;;;;;;;13.07;8.63;;;;;;;;;;5029012;28;20197;-70
2023/08/11 05:01:50;;;;;;;12.57;8.98;;;;;;;;;;5029751;28;20190;-71
2023/08/11 05:04:15;;;;;;;12.13;9.05;;;;;;;;;;5028170;28;20549;-70
2023/08/11 05:06:40;;;;;;;13.18;8.82;;;;;;;;;;5012015;28;20305;-70
2023/08/11 05:09:06;;;;;;;15.48;9.15;;;;;;;;;;5021593;28;20704;-70
2023/08/11 05:11:32;;;;;;;14.25;9.32;;;;;;;;;;5021162;28;20222;-71
2023/08/11 05:13:57;;;;;;;12.60;9.02;;;;;;;;;;5029886;28;20624;-71
2023/08/11 05:16:24;;;;;;;15.90;9.40;;;;;;;;;;5013436;28;20294;-71
2023/08/11 05:18:49;;;;;;;12.15;9.35;;;;;;;;;;5017505;28;20209;-71
2023/08/11 05:21:17;;;;;;;10.10;8.50;;;;;;;;;;5028110;28;20253;-71
2023/08/11 05:23:42;;;;;;;15.65;8.88;;;;;;;;;;5026412;28;20216;-71
2023/08/11 05:26:08;;;;;;;12.18;8.13;;;;;;;;;;5029634;28;20241;-71
2023/08/11 05:28:33;;;;;;;14.60;9.43;;;;;;;;;;5020411;28;20186;-70
2023/08/11 05:30:59;;;;;;;12.68;9.20;;;;;;;;;;5029400;28;20268;-71
2023/08/11 05:33:27;;;;;;;15.30;9.77;;;;;;;;;;5018459;28;20194;-71
2023/08/11 05:35:52;;;;;;;12.10;10.35;;;;;;;;;;5018161;28;20186;-72
2023/08/11 05:38:25;;;;;;;15.07;10.10;;;;;;;;;;5021963;28;20212;-71
2023/08/11 05:40:50;;;;;;;17.35;10.73;;;;;;;;;;5025007;28;20552;-71
2023/08/11 05:43:16;;;;;;;16.73;10.55;;;;;;;;;;5017287;28;20237;-71
2023/08/11 05:45:41;;;;;;;19.15;11.75;;;;;;;;;;5031881;28;20246;-72
2023/08/11 05:48:06;;;;;;;15.73;10.63;;;;;;;;;;5031554;28;20649;-71
2023/08/11 05:50:32;;;;;;;14.15;10.02;;;;;;;;;;5019146;28;20182;-71
2023/08/11 05:52:58;;;;;;;15.20;10.82;;;;;;;;;;5026235;28;20695;-72
2023/08/11 05:55:23;;;;;;;18.23;10.68;;;;;;;;;;5032646;28;20601;-71
2023/08/11 05:57:49;;;;;;;17.75;11.15;;;;;;;;;;5032696;28;20186;-71
2023/08/11 06:00:17;;;;;;;11.77;9.60;;;;;;;;;;5032706;28;20231;-71
2023/08/11 06:02:43;;;;;;;16.88;10.98;;;;;;;;;;5024734;28;20209;-71
2023/08/11 06:05:08;;;;;;;17.67;10.20;;;;;;;;;;5033061;28;20562;-71
2023/08/11 06:07:33;;;;;;;15.38;9.93;;;;;;;;;;5030169;28;20306;-71
2023/08/11 06:09:59;;;;;;;11.32;9.27;;;;;;;;;;5027156;28;20267;-71
2023/08/11 06:12:25;;;;;;;12.55;9.63;;;;;;;;;;5017379;28;20187;-71
2023/08/11 06:14:50;;;;;;;12.60;8.85;;;;;;;;;;5029483;28;20288;-71
2023/08/11 06:17:15;;;;;;;15.45;9.48;;;;;;;;;;5032376;28;20218;-71
2023/08/11 06:19:41;;;;;;;13.50;9.07;;;;;;;;;;5031240;28;20209;-71
2023/08/11 06:22:06;;;;;;;14.57;9.18;;;;;;;;;;5018744;28;20213;-71
2023/08/11 06:24:32;;;;;;;12.68;8.80;;;;;;;;;;5025253;28;20190;-71
2023/08/11 06:26:57;;;;;;;15.07;9.30;;;;;;;;;;5029201;28;20209;-71
2023/08/11 06:29:23;;;;;;;13.00;9.13;;;;;;;;;;5023311;28;20187;-71
2023/08/11 06:31:48;;;;;;;13.65;8.40;;;;;;;;;;5033032;28;20305;-71
2023/08/11 06:34:17;;;;;;;17.48;8.75;;;;;;;;;;5027520;28;20212;-71
2023/08/11 06:36:45;;;;;;;13.35;8.15;;;;;;;;;;5038059;28;20616;-71
2023/08/11 06:39:11;;;;;;;9.48;7.75;;;;;;;;;;5022314;28;20195;-71
2023/08/11 06:41:38;;;;;;;11.57;7.60;;;;;;;;;;5025001;28;20194;-71
2023/08/11 06:44:04;;;;;;;12.13;7.70;;;;;;;;;;5011582;28;20227;-71
2023/08/11 06:46:29;;;;;;;11.73;7.13;;;;;;;;;;5023084;28;20237;-71
2023/08/11 06:48:54;;;;;;;11.27;7.10;;;;;;;;;;5014700;28;20195;-71
2023/08/11 06:51:20;;;;;;;11.05;6.53;;;;;;;;;;5022074;28;20359;-71
2023/08/11 06:53:45;;;;;;;10.10;6.40;;;;;;;;;;5026408;28;20197;-71
2023/08/11 06:56:11;;;;;;;9.57;6.55;;;;;;;;;;5017077;28;20327;-70
2023/08/11 06:58:36;;;;;;;9.73;5.72;;;;;;;;;;5031151;28;20504;-70
2023/08/11 07:01:03;;;;;;;8.90;6.22;;;;;;;;;;5031492;28;20540;-71
2023/08/11 07:03:28;;;;;;;8.15;5.50;;;;;;;;;;5026151;28;20217;-71
2023/08/11 07:05:54;;;;;;;11.27;5.40;;;;;;;;;;5032432;28;20214;-71
2023/08/11 07:08:20;;;;;;;9.80;5.70;;;;;;;;;;5026239;28;20216;-71
2023/08/11 07:10:46;;;;;;;9.05;5.15;;;;;;;;;;5031916;28;20221;-71
2023/08/11 07:13:11;;;;;;;7.40;5.03;;;;;;;;;;5024544;28;20309;-70
2023/08/11 07:15:42;;;;;;;6.63;4.40;;;;;;;;;;5031072;28;20194;-70
2023/08/11 07:18:10;;;;;;;6.45;4.78;;;;;;;;;;5024779;28;20245;-70
2023/08/11 07:20:40;;;;;;;7.03;3.97;;;;;;;;;;5025566;28;20214;-71
2023/08/11 07:23:05;;;;;;;6.60;4.03;;;;;;;;;;5018315;28;20265;-69
2023/08/11 07:25:30;;;;;;;6.80;3.63;;;;;;;;;;5030389;28;20633;-70
2023/08/11 07:27:56;;;;;;;5.65;3.42;;;;;;;;;;5029837;28;20201;-69
2023/08/11 07:30:21;;;;;;;7.20;3.30;;;;;;;;;;5026071;28;20190;-69
2023/08/11 07:32:47;;;;;;;7.18;3.30;;;;;;;;;;5020050;28;20665;-69
2023/08/11 07:35:12;;;;;;;7.07;3.47;;;;;;;;;;5028451;28;20280;-69
2023/08/11 07:37:37;;;;;;;4.55;3.40;;;;;;;;;;5027453;28;20191;-69
2023/08/11 07:40:04;;;;;;;10.43;3.10;;;;;;;;;;5027140;28;20619;-69
2023/08/11 07:42:29;;;;;;;8.90;3.38;;;;;;;;;;5026687;28;20234;-69
2023/08/11 07:44:54;;;;;;;6.70;3.30;;;;;;;;;;5023897;28;20197;-70
2023/08/11 07:47:20;;;;;;;6.35;2.83;;;;;;;;;;5030860;28;20221;-70
2023/08/11 07:49:46;;;;;;;7.25;3.15;;;;;;;;;;5031063;28;20677;-70
2023/08/11 07:52:11;;;;;;;5.20;3.45;;;;;;;;;;5030411;28;20296;-71
2023/08/11 07:54:37;;;;;;;5.75;2.90;;;;;;;;;;5030052;28;20665;-70
2023/08/11 07:57:02;;;;;;;5.70;3.38;;;;;;;;;;5026980;28;20185;-70
2023/08/11 07:59:28;;;;;;;6.05;3.00;;;;;;;;;;5028858;28;20656;-70
2023/08/11 08:01:53;;;;;;;8.02;3.58;;;;;;;;;;5029694;28;20194;-70
2023/08/11 08:04:18;;;;;;;6.43;3.30;;;;;;;;;;5026896;28;20622;-70
2023/08/11 08:06:45;;;;;;;7.50;4.00;;;;;;;;;;5030407;28;20730;-69
2023/08/11 08:09:12;;;;;;;5.72;3.50;;;;;;;;;;5016289;28;20748;-70
2023/08/11 08:11:44;;;;;;;5.78;3.30;;;;;;;;;;5024469;28;20214;-70
2023/08/11 08:14:11;;;;;;;6.20;3.38;;;;;;;;;;5027705;28;20240;-70
2023/08/11 08:16:44;;;;;;;6.40;3.35;;;;;;;;;;5015454;28;20622;-70
2023/08/11 08:19:11;;;;;;;6.88;3.53;;;;;;;;;;5015803;28;20198;-69
2023/08/11 08:21:37;;;;;;;8.15;3.70;;;;;;;;;;5026355;28;20196;-70
2023/08/11 08:24:04;;;;;;;7.53;3.50;;;;;;;;;;5026428;28;20202;-69
2023/08/11 08:26:29;;;;;;;5.30;3.20;;;;;;;;;;5019292;28;20272;-70
2023/08/11 08:28:55;;;;;;;5.10;2.90;;;;;;;;;;5018613;28;20569;-69
2023/08/11 08:31:20;;;;;;;6.60;2.92;;;;;;;;;;5024518;28;20186;-69
2023/08/11 08:33:45;;;;;;;6.45;3.03;;;;;;;;;;5023827;28;20202;-69
2023/08/11 08:36:11;;;;;;;6.57;2.70;;;;;;;;;;5030507;28;20190;-70
2023/08/11 08:38:36;;;;;;;5.78;2.97;;;;;;;;;;5021221;28;20186;-69
2023/08/11 08:41:07;;;;;;;5.97;3.20;;;;;;;;;;5018923;28;20290;-70
2023/08/11 08:43:33;;;;;;;4.40;2.80;;;;;;;;;;5021905;28;20664;-71
2023/08/11 08:46:02;;;;;;;6.10;3.03;;;;;;;;;;5016299;28;20354;-70
2023/08/11 08:48:35;;;;;;;7.13;3.22;;;;;;;;;;5017277;28;20221;-71
2023/08/11 08:51:01;;;;;;;6.95;3.13;;;;;;;;;;5010408;28;20201;-70
2023/08/11 08:53:27;;;;;;;9.57;3.30;;;;;;;;;;5016547;28;20198;-70
2023/08/11 08:55:53;;;;;;;6.75;2.90;;;;;;;;;;5015126;28;20179;-70
2023/08/11 08:58:18;;;;;;;4.47;2.78;;;;;;;;;;5029643;28;20665;-70
2023/08/11 09:00:45;;;;;;;6.05;2.83;;;;;;;;;;5030069;28;20186;-70
2023/08/11 09:03:11;;;;;;;4.25;2.83;;;;;;;;;;5029695;28;20572;-70
2023/08/11 09:05:37;;;;;;;8.45;2.88;;;;;;;;;;5029708;28;20675;-71
2023/08/11 09:08:03;;;;;;;8.23;3.05;;;;;;;;;;5026406;28;20712;-70
2023/08/11 09:10:29;;;;;;;8.05;3.58;;;;;;;;;;5019366;28;20189;-71
2023/08/11 09:12:54;;;;;;;5.70;3.08;;;;;;;;;;5024868;28;20270;-70
2023/08/11 09:15:21;;;;;;;7.40;3.28;;;;;;;;;;5029683;28;20182;-70
2023/08/11 09:17:47;;;;;;;6.70;3.38;;;;;;;;;;5028802;28;20233;-70
2023/08/11 09:20:17;;;;;;;5.85;3.03;;;;;;;;;;5029074;28;20194;-70
2023/08/11 09:22:43;;;;;;;5.30;3.08;;;;;;;;;;5021137;28;20197;-70
2023/08/11 09:25:08;;;;;;;7.80;3.70;;;;;;;;;;5015884;28;20198;-72
2023/08/11 09:27:34;;;;;;;5.95;3.50;;;;;;;;;;5029816;28;20633;-70
2023/08/11 09:29:59;;;;;;;4.63;3.17;;;;;;;;;;5014895;28;20230;-70
2023/08/11 09:32:25;;;;;;;5.90;3.40;;;;;;;;;;5030078;28;20198;-70
2023/08/11 09:34:50;;;;;;;5.00;3.10;;;;;;;;;;5029412;28;20198;-70
2023/08/11 09:37:16;;;;;;;5.15;3.70;;;;;;;;;;5028835;28;20641;-70
2023/08/11 09:39:42;;;;;;;10.30;3.50;;;;;;;;;;5026585;28;20309;-70
2023/08/11 09:42:08;;;;;;;6.10;3.67;;;;;;;;;;5028974;28;20237;-71
2023/08/11 09:44:34;;;;;;;8.45;3.63;;;;;;;;;;5026459;28;20190;-70
2023/08/11 09:47:03;;;;;;;6.40;3.78;;;;;;;;;;5029312;28;20240;-70
2023/08/11 09:49:29;;;;;;;5.45;3.38;;;;;;;;;;5029288;28;20304;-70
2023/08/11 09:51:57;;;;;;;8.02;3.83;;;;;;;;;;5027120;28;20185;-74
2023/08/11 09:54:23;;;;;;;6.72;3.95;;;;;;;;;;5025500;28;20190;-71
2023/08/11 09:56:49;;;;;;;5.32;3.80;;;;;;;;;;5029017;28;20251;-70
2023/08/11 09:59:18;;;;;;;6.65;3.58;;;;;;;;;;5027864;28;20197;-75
2023/08/11 10:01:44;;;;;;;5.22;3.47;;;;;;;;;;5030145;28;20198;-70
2023/08/11 10:04:27;;;;;;;7.38;3.50;;;;;;;;;;5020468;28;20190;-70
2023/08/11 10:06:57;;;;;;;5.28;3.20;;;;;;;;;;5016985;28;20224;-74
2023/08/11 10:09:25;;;;;;;6.03;3.90;;;;;;;;;;5021856;28;20191;-70
2023/08/11 10:11:51;;;;;;;6.68;3.90;;;;;;;;;;5029440;28;20256;-73
2023/08/11 10:14:19;;;;;;;4.38;3.13;;;;;;;;;;5028840;28;20190;-70
2023/08/11 10:16:46;;;;;;;8.38;3.72;;;;;;;;;;5027861;28;20190;-71
2023/08/11 10:19:12;;;;;;;5.85;3.72;;;;;;;;;;5018931;28;20734;-70
2023/08/11 10:21:39;;;;;;;8.90;3.83;;;;;;;;;;5030067;28;20205;-70
2023/08/11 10:24:06;;;;;;;5.85;3.00;;;;;;;;;;5022263;28;20236;-70
2023/08/11 10:26:32;;;;;;;8.98;3.75;;;;;;;;;;5022434;28;20210;-71
2023/08/11 10:28:58;;;;;;;5.22;3.60;;;;;;;;;;5026065;28;20213;-71
2023/08/11 10:31:24;;;;;;;8.30;3.40;;;;;;;;;;5013960;28;20191;-70
2023/08/11 10:33:51;;;;;;;6.28;3.42;;;;;;;;;;5047101;28;20563;-70
2023/08/11 10:36:21;;;;;;;5.03;3.45;;;;;;;;;;5033058;28;20186;-70
2023/08/11 10:39:05;;;;;;;4.88;3.30;;;;;;;;;;5029572;28;20201;-74
2023/08/11 10:41:31;;;;;;;6.85;3.55;;;;;;;;;;5025199;28;20202;-71
2023/08/11 10:43:57;;;;;;;5.30;3.50;;;;;;;;;;5027874;28;20238;-71
2023/08/11 10:46:30;;;;;;;7.57;3.40;;;;;;;;;;5022074;28;20214;-71
2023/08/11 10:49:05;;;;;;;7.07;3.45;;;;;;;;;;5031507;28;20475;-70
2023/08/11 10:51:35;;;;;;;6.07;3.10;;;;;;;;;;5032349;28;20600;-70
2023/08/11 10:54:09;;;;;;;5.78;3.20;;;;;;;;;;5030468;28;20236;-70
2023/08/11 10:56:37;;;;;;;12.88;3.70;;;;;;;;;;5031983;28;20201;-70
2023/08/11 10:59:16;;;;;;;5.32;3.38;;;;;;;;;;5031534;28;20196;-71
2023/08/11 11:01:45;;;;;;;4.53;3.30;;;;;;;;;;5019613;28;20221;-71
2023/08/11 11:04:11;;;;;;;7.95;3.00;;;;;;;;;;5026791;28;20214;-70
2023/08/11 11:06:39;;;;;;;6.57;2.90;;;;;;;;;;5029550;28;20252;-72
2023/08/11 11:09:05;;;;;;;4.68;2.40;;;;;;;;;;5032270;28;20248;-71
2023/08/11 11:11:31;;;;;;;5.07;2.90;;;;;;;;;;5029791;28;20622;-71
2023/08/11 11:13:57;;;;;;;5.45;2.88;;;;;;;;;;5028878;28;20665;-70
2023/08/11 11:16:23;;;;;;;5.80;2.85;;;;;;;;;;5031774;28;20186;-71
2023/08/11 11:18:49;;;;;;;7.60;3.30;;;;;;;;;;5036775;28;20217;-71
2023/08/11 11:21:17;;;;;;;6.40;3.13;;;;;;;;;;5031757;28;20208;-71
2023/08/11 11:23:47;;;;;;;4.85;3.10;;;;;;;;;;5031697;28;20255;-71
2023/08/11 11:26:27;;;;;;;5.40;2.97;;;;;;;;;;5017703;28;20214;-70
2023/08/11 11:28:54;;;;;;;7.93;3.10;;;;;;;;;;5013631;28;20632;-70
2023/08/11 11:31:21;;;;;;;6.30;2.80;;;;;;;;;;5032815;28;20269;-70
2023/08/11 11:33:48;;;;;;;4.38;2.92;;;;;;;;;;5030452;28;20323;-74
2023/08/11 11:36:13;;;;;;;3.35;2.72;;;;;;;;;;5030817;28;20209;-71
2023/08/11 11:38:43;;;;;;;4.65;2.78;;;;;;;;;;5029011;28;20186;-71
2023/08/11 11:41:18;;;;;;;3.38;2.58;;;;;;;;;;5030836;28;20194;-70
2023/08/11 11:43:46;;;;;;;6.18;2.72;;;;;;;;;;5030469;28;20225;-70
2023/08/11 11:46:15;;;;;;;6.10;2.28;;;;;;;;;;5030324;28;20218;-72
2023/08/11 11:48:53;;;;;;;6.28;2.55;;;;;;;;;;5029429;28;20186;-70
2023/08/11 11:51:23;;;;;;;7.60;2.75;;;;;;;;;;5031387;28;20669;-71
2023/08/11 11:53:50;;;;;;;5.82;2.80;;;;;;;;;;5028326;28;20210;-70
2023/08/11 11:56:17;;;;;;;4.82;2.70;;;;;;;;;;5022648;28;20189;-72
2023/08/11 11:58:43;;;;;;;13.30;3.28;;;;;;;;;;5029200;28;20549;-70
2023/08/11 12:01:15;;;;;;;4.72;2.17;;;;;;;;;;5011754;28;20683;-71
2023/08/11 12:03:42;;;;;;;9.30;2.80;;;;;;;;;;5022072;28;20190;-70
2023/08/11 12:06:08;;;;;;;8.02;2.85;;;;;;;;;;5013659;28;20311;-72
2023/08/11 12:08:35;;;;;;;3.38;2.45;;;;;;;;;;5031262;28;20242;-70
2023/08/11 12:11:01;;;;;;;5.90;2.80;;;;;;;;;;5028451;28;20351;-73
2023/08/11 12:13:29;;;;;;;3.33;2.30;;;;;;;;;;5031118;28;20178;-73
2023/08/11 12:15:54;;;;;;;14.27;3.10;;;;;;;;;;5032496;28;20661;-73
2023/08/11 12:18:20;;;;;;;15.02;3.47;;;;;;;;;;5029819;28;20213;-70
2023/08/11 12:20:46;;;;;;;6.63;2.70;;;;;;;;;;5027084;28;20201;-71
2023/08/11 12:23:11;;;;;;;13.27;3.13;;;;;;;;;;5028572;28;20194;-74
2023/08/11 12:25:37;;;;;;;10.90;2.58;;;;;;;;;;5012913;28;20557;-70
2023/08/11 12:28:02;;;;;;;4.97;2.67;;;;;;;;;;5011229;28;20352;-72
2023/08/11 12:30:28;;;;;;;6.07;2.50;;;;;;;;;;5018708;28;20276;-71
2023/08/11 12:32:54;;;;;;;4.43;2.47;;;;;;;;;;5023537;28;20760;-70
2023/08/11 12:35:19;;;;;;;3.70;2.70;;;;;;;;;;5017115;28;20580;-70
2023/08/11 12:37:46;;;;;;;3.35;2.38;;;;;;;;;;5030031;28;20549;-72
2023/08/11 12:40:12;;;;;;;4.32;2.50;;;;;;;;;;5020421;28;20194;-72
2023/08/11 12:42:38;;;;;;;5.35;2.50;;;;;;;;;;5008964;28;20678;-70
2023/08/11 12:45:04;;;;;;;5.88;2.53;;;;;;;;;;5019956;28;20201;-73
2023/08/11 12:47:30;;;;;;;5.35;2.65;;;;;;;;;;5033004;28;20230;-70
2023/08/11 12:49:57;;;;;;;4.55;2.35;;;;;;;;;;5024000;28;20649;-70
2023/08/11 12:52:22;;;;;;;3.80;2.30;;;;;;;;;;5020256;28;20189;-73
2023/08/11 12:54:47;;;;;;;5.47;2.67;;;;;;;;;;5026008;28;20536;-72
2023/08/11 12:57:13;;;;;;;3.25;2.63;;;;;;;;;;5025076;28;20193;-73
2023/08/11 12:59:38;;;;;;;4.38;2.38;;;;;;;;;;5014842;28;20220;-70
2023/08/11 13:02:04;;;;;;;5.97;2.50;;;;;;;;;;5030383;28;20288;-74
2023/08/11 13:04:30;;;;;;;8.77;2.65;;;;;;;;;;5027475;28;20660;-71
2023/08/11 13:06:55;;;;;;;9.85;2.88;;;;;;;;;;5029732;28;20218;-71
2023/08/11 13:09:20;;;;;;;3.22;2.50;;;;;;;;;;5016784;28;20191;-71
2023/08/11 13:11:46;;;;;;;4.03;2.50;;;;;;;;;;5041249;28;20681;-71
2023/08/11 13:14:11;;;;;;;5.32;2.90;;;;;;;;;;5017402;28;20195;-70
2023/08/11 13:16:36;;;;;;;6.50;3.10;;;;;;;;;;5023096;28;20618;-73
2023/08/11 13:19:02;;;;;;;8.15;3.17;;;;;;;;;;5019555;28;20186;-71
2023/08/11 13:21:28;;;;;;;5.15;2.38;;;;;;;;;;5026783;28;20190;-71
2023/08/11 13:23:53;;;;;;;4.45;2.60;;;;;;;;;;5026443;28;20269;-71
2023/08/11 13:26:18;;;;;;;9.43;3.25;;;;;;;;;;5028131;28;20209;-71
2023/08/11 13:28:44;;;;;;;9.00;2.95;;;;;;;;;;5028297;28;20206;-72
2023/08/11 13:31:09;;;;;;;8.10;3.30;;;;;;;;;;5027192;28;20217;-75
2023/08/11 13:33:35;;;;;;;8.73;3.17;;;;;;;;;;5011149;28;20189;-73
2023/08/11 13:36:00;;;;;;;5.57;2.60;;;;;;;;;;5026616;28;20289;-71
2023/08/11 13:38:28;;;;;;;4.25;3.10;;;;;;;;;;5029942;28;20251;-71
2023/08/11 13:40:55;;;;;;;9.25;3.00;;;;;;;;;;5018688;28;20256;-73
2023/08/11 13:43:22;;;;;;;5.60;2.80;;;;;;;;;;5005892;28;20335;-70
2023/08/11 13:45:47;;;;;;;3.53;2.75;;;;;;;;;;5015333;28;20189;-70
2023/08/11 13:48:13;;;;;;;7.20;2.80;;;;;;;;;;5029318;28;20220;-70
2023/08/11 13:50:38;;;;;;;11.80;3.47;;;;;;;;;;5023047;28;20243;-70
2023/08/11 13:53:03;;;;;;;6.93;2.85;;;;;;;;;;5019413;28;20197;-71
2023/08/11 13:55:29;;;;;;;4.00;2.78;;;;;;;;;;5023794;28;20197;-73
2023/08/11 13:57:54;;;;;;;6.25;2.85;;;;;;;;;;5028280;28;20285;-71
2023/08/11 14:00:20;;;;;;;7.63;3.13;;;;;;;;;;5029221;28;20247;-74
2023/08/11 14:02:46;;;;;;;7.63;2.83;;;;;;;;;;5026477;28;20181;-71
2023/08/11 14:05:11;;;;;;;8.70;2.95;;;;;;;;;;5017641;28;20635;-71
2023/08/11 14:07:37;;;;;;;5.90;2.53;;;;;;;;;;5027020;28;20221;-70
2023/08/11 14:10:02;;;;;;;5.30;2.83;;;;;;;;;;5030674;28;20182;-70
2023/08/11 14:12:28;;;;;;;4.05;2.60;;;;;;;;;;5013693;28;20209;-71
2023/08/11 14:14:53;;;;;;;5.53;2.60;;;;;;;;;;5027159;28;20221;-75
2023/08/11 14:17:18;;;;;;;5.95;3.03;;;;;;;;;;5023080;28;20696;-71
2023/08/11 14:19:44;;;;;;;9.30;3.28;;;;;;;;;;5032947;28;20186;-71
2023/08/11 14:22:09;;;;;;;4.53;2.70;;;;;;;;;;5013204;28;20198;-71
2023/08/11 14:24:35;;;;;;;8.05;3.47;;;;;;;;;;5026137;28;20200;-71
2023/08/11 14:27:00;;;;;;;7.32;2.92;;;;;;;;;;5030866;28;20216;-70
2023/08/11 14:29:25;;;;;;;4.43;2.90;;;;;;;;;;5028198;28;20198;-72